createdAt,value
2019-05-10T00:00:41.307Z,77.64
2019-05-10T00:03:28.510Z,77.12
2019-05-10T00:06:16.069Z,77.34
2019-05-10T00:08:47.743Z,77.61
2019-05-10T00:11:42.541Z,77.91
2019-05-10T00:14:18.505Z,77.34
2019-05-10T00:16:49.401Z,77.53
2019-05-10T00:19:19.193Z,77.72
2019-05-10T00:21:48.958Z,77.47
2019-05-10T00:24:18.838Z,76.68
2019-05-10T00:26:48.596Z,76.40
2019-05-10T00:29:18.892Z,76.61
2019-05-10T00:31:48.703Z,76.40
2019-05-10T00:34:18.366Z,76.54
2019-05-10T00:36:48.143Z,75.72
2019-05-10T00:39:19.511Z,75.91
2019-05-10T00:41:49.394Z,75.93
2019-05-10T00:44:19.088Z,76.21
2019-05-10T00:46:48.899Z,76.08
2019-05-10T00:49:18.555Z,75.92
2019-05-10T00:52:03.357Z,75.20
2019-05-10T00:54:33.012Z,75.10
2019-05-10T00:57:02.735Z,74.96
2019-05-10T00:59:32.565Z,74.92
2019-05-10T01:02:02.298Z,75.05
2019-05-10T01:04:31.986Z,75.10
2019-05-10T01:07:01.698Z,75.29
2019-05-10T01:09:31.381Z,75.49
2019-05-10T01:12:01.125Z,75.61
2019-05-10T01:14:30.981Z,75.47
2019-05-10T01:17:00.796Z,75.36
2019-05-10T01:19:30.753Z,75.62
2019-05-10T01:22:00.552Z,75.62
2019-05-10T01:24:30.283Z,74.80
2019-05-10T01:27:00.076Z,75.00
2019-05-10T01:29:29.924Z,75.03
2019-05-10T01:31:59.874Z,75.15
2019-05-10T01:34:29.547Z,75.01
2019-05-10T01:36:59.524Z,75.06
2019-05-10T01:39:29.232Z,75.35
2019-05-10T01:41:59.027Z,75.65
2019-05-10T01:44:28.801Z,75.51
2019-05-10T01:46:58.472Z,75.25
2019-05-10T01:49:28.220Z,75.73
2019-05-10T01:51:57.970Z,75.51
2019-05-10T01:54:27.786Z,75.22
2019-05-10T01:56:57.582Z,74.91
2019-05-10T01:59:27.304Z,74.88
2019-05-10T02:01:57.015Z,74.87
2019-05-10T02:04:26.788Z,74.61
2019-05-10T02:06:56.625Z,74.81
2019-05-10T02:09:26.354Z,74.79
2019-05-10T02:11:56.037Z,74.80
2019-05-10T02:14:25.804Z,74.92
2019-05-10T02:16:55.811Z,74.58
2019-05-10T02:19:25.507Z,74.83
2019-05-10T02:21:55.319Z,74.88
2019-05-10T02:24:25.107Z,74.86
2019-05-10T02:26:54.878Z,74.77
2019-05-10T02:29:24.606Z,74.91
2019-05-10T02:31:54.395Z,74.89
2019-05-10T02:34:24.137Z,74.80
2019-05-10T02:36:54.132Z,74.79
2019-05-10T02:39:23.911Z,74.72
2019-05-10T02:41:53.759Z,74.95
2019-05-10T02:44:23.488Z,75.21
2019-05-10T02:46:53.215Z,75.01
2019-05-10T02:49:22.911Z,75.21
2019-05-10T02:51:52.635Z,75.67
2019-05-10T02:54:22.646Z,75.96
2019-05-10T02:56:54.035Z,76.38
2019-05-10T02:59:24.341Z,77.07
2019-05-10T03:01:57.184Z,77.74
2019-05-10T03:04:28.505Z,78.20
2019-05-10T03:07:04.040Z,78.53
2019-05-10T03:09:35.645Z,78.40
2019-05-10T03:12:24.587Z,78.39
2019-05-10T03:14:58.332Z,78.56
2019-05-10T03:17:29.181Z,78.42
2019-05-10T03:20:01.774Z,78.83
2019-05-10T03:22:36.045Z,78.77
2019-05-10T03:25:07.491Z,78.49
2019-05-10T03:27:37.894Z,78.72
2019-05-10T03:30:08.604Z,78.95
2019-05-10T03:32:38.310Z,78.97
2019-05-10T03:35:10.121Z,79.07
2019-05-10T03:37:40.577Z,78.95
2019-05-10T03:40:10.477Z,78.65
2019-05-10T03:42:40.394Z,78.92
2019-05-10T03:45:11.128Z,79.27
2019-05-10T03:47:40.944Z,79.73
2019-05-10T03:50:11.126Z,80.34
2019-05-10T03:52:40.913Z,80.92
2019-05-10T03:55:10.927Z,81.48
2019-05-10T03:57:40.683Z,81.98
2019-05-10T04:00:13.992Z,82.46
2019-05-10T04:02:43.659Z,82.66
2019-05-10T04:05:13.781Z,82.70
2019-05-10T04:07:43.734Z,82.52
2019-05-10T04:10:13.871Z,82.92
2019-05-10T04:12:43.561Z,83.10
2019-05-10T04:15:13.706Z,83.10
2019-05-10T04:17:43.524Z,83.10
2019-05-10T04:20:13.739Z,83.09
2019-05-10T04:22:43.638Z,83.34
2019-05-10T04:25:15.410Z,83.52
2019-05-10T04:27:45.166Z,83.41
2019-05-10T04:30:15.803Z,83.57
2019-05-10T04:32:45.466Z,83.56
2019-05-10T04:35:15.575Z,83.32
2019-05-10T04:37:45.611Z,83.45
2019-05-10T04:40:15.613Z,83.60
2019-05-10T04:42:45.406Z,83.36
2019-05-10T04:45:16.058Z,83.61
2019-05-10T04:47:45.725Z,83.54
2019-05-10T04:50:15.647Z,83.66
2019-05-10T04:52:45.379Z,83.72
2019-05-10T04:55:15.089Z,83.75
2019-05-10T04:57:50.743Z,83.78
2019-05-10T05:00:16.673Z,83.84
2019-05-10T05:02:46.409Z,83.52
2019-05-10T05:05:16.454Z,83.66
2019-05-10T05:07:46.238Z,83.50
2019-05-10T05:10:15.922Z,83.61
2019-05-10T05:12:45.601Z,83.63
2019-05-10T05:15:17.032Z,83.57
2019-05-10T05:17:46.811Z,83.51
2019-05-10T05:20:18.201Z,83.62
2019-05-10T05:22:48.239Z,83.94
2019-05-10T05:25:21.626Z,83.72
2019-05-10T05:28:05.339Z,83.83
2019-05-10T05:30:21.660Z,83.68
2019-05-10T05:32:51.363Z,83.50
2019-05-10T05:35:21.130Z,83.54
2019-05-10T05:37:51.005Z,83.76
2019-05-10T05:40:20.895Z,83.75
2019-05-10T05:42:50.653Z,83.81
2019-05-10T05:45:20.476Z,83.65
2019-05-10T05:47:50.235Z,83.27
2019-05-10T05:50:20.277Z,83.40
2019-05-10T05:52:50.139Z,83.16
2019-05-10T05:55:22.930Z,82.51
2019-05-10T05:57:51.450Z,82.25
2019-05-10T06:00:21.332Z,81.95
2019-05-10T06:02:51.110Z,80.98
2019-05-10T06:05:33.487Z,80.67
2019-05-10T06:07:52.948Z,80.26
2019-05-10T06:10:22.957Z,79.35
2019-05-10T06:12:52.939Z,79.05
2019-05-10T06:15:28.778Z,78.86
2019-05-10T06:17:57.253Z,78.86
2019-05-10T06:20:26.675Z,78.87
2019-05-10T06:23:06.396Z,79.08
2019-05-10T06:25:39.284Z,79.18
2019-05-10T06:27:59.601Z,79.00
2019-05-10T06:30:29.526Z,78.93
2019-05-10T06:33:11.481Z,78.62
2019-05-10T06:35:30.840Z,78.66
2019-05-10T06:38:00.700Z,78.66
2019-05-10T06:40:34.775Z,78.56
2019-05-10T06:43:07.090Z,78.00
2019-05-10T06:45:33.570Z,77.77
2019-05-10T06:48:03.272Z,77.68
2019-05-10T06:50:33.019Z,77.57
2019-05-10T06:53:07.787Z,77.68
2019-05-10T06:55:34.323Z,77.67
2019-05-10T06:58:04.404Z,77.28
2019-05-10T07:00:37.918Z,76.70
2019-05-10T07:03:05.698Z,76.26
2019-05-10T07:05:35.452Z,75.89
2019-05-10T07:08:14.987Z,75.44
2019-05-10T07:10:36.542Z,75.20
2019-05-10T07:13:06.929Z,75.31
2019-05-10T07:15:42.033Z,74.75
2019-05-10T07:18:08.744Z,74.83
2019-05-10T07:20:38.508Z,74.47
2019-05-10T07:23:08.289Z,74.30
2019-05-10T07:25:43.468Z,73.66
2019-05-10T07:28:15.476Z,73.88
2019-05-10T07:30:41.859Z,73.89
2019-05-10T07:33:11.637Z,74.51
2019-05-10T07:35:41.304Z,74.87
2019-05-10T07:38:11.060Z,74.19
2019-05-10T07:40:40.747Z,74.03
2019-05-10T07:43:10.718Z,72.41
2019-05-10T07:45:40.410Z,71.11
2019-05-10T07:48:10.504Z,70.41
2019-05-10T07:50:42.263Z,68.51
2019-05-10T07:53:16.422Z,67.36
2019-05-10T07:55:43.310Z,66.57
2019-05-10T07:58:13.009Z,65.72
2019-05-10T08:00:44.732Z,64.73
2019-05-10T08:03:17.605Z,64.91
2019-05-10T08:05:51.041Z,62.35
2019-05-10T08:08:19.229Z,61.91
2019-05-10T08:10:49.098Z,62.08
2019-05-10T08:13:21.240Z,60.28
2019-05-10T08:15:50.343Z,59.47
2019-05-10T08:18:24.135Z,59.82
2019-05-10T08:20:57.765Z,59.77
2019-05-10T08:23:27.750Z,60.06
2019-05-10T08:25:54.508Z,59.52
2019-05-10T08:28:28.007Z,60.79
2019-05-10T08:30:58.691Z,61.29
2019-05-10T08:33:27.375Z,60.89
2019-05-10T08:36:00.750Z,59.37
2019-05-10T08:38:28.621Z,60.37
2019-05-10T08:40:58.356Z,60.62
2019-05-10T08:43:33.138Z,59.71
2019-05-10T08:45:59.595Z,60.36
2019-05-10T08:48:30.020Z,58.82
2019-05-10T08:51:04.073Z,59.13
2019-05-10T08:53:32.921Z,57.87
2019-05-10T08:56:07.503Z,57.82
2019-05-10T08:58:37.080Z,57.56
2019-05-10T09:01:20.563Z,57.84
2019-05-10T09:03:37.174Z,57.13
2019-05-10T09:06:11.692Z,56.15
2019-05-10T09:08:38.588Z,56.14
2019-05-10T09:11:08.664Z,56.45
2019-05-10T09:13:41.394Z,56.20
2019-05-10T09:16:09.955Z,56.52
2019-05-10T09:18:46.775Z,56.50
2019-05-10T09:21:14.221Z,57.23
2019-05-10T09:23:42.809Z,57.91
2019-05-10T09:26:16.367Z,56.82
2019-05-10T09:28:47.599Z,57.19
2019-05-10T09:31:21.296Z,57.08
2019-05-10T09:33:49.425Z,57.75
2019-05-10T09:36:23.146Z,57.57
2019-05-10T09:38:52.512Z,58.49
2019-05-10T09:41:22.624Z,58.58
2019-05-10T09:43:53.765Z,58.30
2019-05-10T09:46:23.640Z,58.47
2019-05-10T09:48:54.693Z,58.42
2019-05-10T09:51:30.132Z,58.11
2019-05-10T09:53:57.609Z,57.57
2019-05-10T09:56:32.816Z,56.79
2019-05-10T09:58:59.408Z,55.64
2019-05-10T10:01:29.072Z,54.59
2019-05-10T10:04:02.130Z,54.08
2019-05-10T10:06:30.190Z,54.64
2019-05-10T10:09:01.028Z,53.93
2019-05-10T10:11:30.907Z,54.40
2019-05-10T10:14:02.175Z,55.20
2019-05-10T10:16:32.135Z,55.75
2019-05-10T10:19:01.823Z,55.77
2019-05-10T10:21:35.573Z,56.82
2019-05-10T10:24:12.599Z,56.51
2019-05-10T10:26:34.595Z,56.94
2019-05-10T10:29:04.347Z,56.80
2019-05-10T10:31:48.356Z,57.54
2019-05-10T10:34:07.625Z,56.98
2019-05-10T10:36:40.409Z,56.34
2019-05-10T10:39:08.953Z,56.05
2019-05-10T10:41:38.638Z,55.87
2019-05-10T10:44:08.507Z,56.73
2019-05-10T10:46:38.221Z,56.50
2019-05-10T10:49:10.430Z,56.49
2019-05-10T10:51:39.269Z,55.85
2019-05-10T10:54:09.032Z,55.60
2019-05-10T10:56:39.150Z,55.01
2019-05-10T10:59:08.798Z,54.14
2019-05-10T11:01:49.476Z,53.69
2019-05-10T11:04:09.973Z,53.14
2019-05-10T11:06:39.747Z,54.00
2019-05-10T11:09:10.110Z,53.92
2019-05-10T11:11:44.266Z,52.77
2019-05-10T11:14:11.383Z,54.24
2019-05-10T11:16:41.415Z,55.83
2019-05-10T11:19:15.530Z,56.63
2019-05-10T11:21:42.579Z,57.22
2019-05-10T11:24:18.199Z,56.80
2019-05-10T11:26:44.935Z,56.85
2019-05-10T11:29:25.327Z,56.48
2019-05-10T11:31:53.495Z,57.28
2019-05-10T11:34:18.159Z,57.71
2019-05-10T11:36:48.381Z,58.41
2019-05-10T11:39:26.235Z,58.81
2019-05-10T11:41:52.865Z,59.43
2019-05-10T11:44:22.826Z,60.88
2019-05-10T11:46:52.593Z,61.77
2019-05-10T11:49:22.446Z,62.77
2019-05-10T11:51:54.941Z,64.17
2019-05-10T11:54:23.787Z,64.20
2019-05-10T11:56:58.476Z,64.11
2019-05-10T12:04:36.268Z,66.85
2019-05-10T12:07:01.789Z,67.67
2019-05-10T12:09:31.635Z,67.90
2019-05-10T12:12:03.340Z,67.98
2019-05-10T12:14:33.100Z,68.21
2019-05-10T12:17:06.351Z,69.03
2019-05-10T12:19:47.875Z,69.77
2019-05-10T12:22:05.972Z,70.00
2019-05-10T12:24:52.101Z,69.86
2019-05-10T12:26:03.777Z,65.93
2019-05-10T12:26:16.348Z,64.92
2019-05-10T12:27:18.982Z,69.43
2019-05-10T12:29:38.712Z,69.43
2019-05-10T12:32:10.401Z,69.25
2019-05-10T12:34:41.059Z,68.57
2019-05-10T12:37:11.029Z,68.29
2019-05-10T12:39:40.740Z,67.14
2019-05-10T12:44:43.999Z,65.39
2019-05-10T12:47:12.360Z,64.72
2019-05-10T12:49:42.085Z,63.34
2019-05-10T12:52:14.052Z,61.96
2019-05-10T12:54:43.709Z,61.02
2019-05-10T12:57:13.424Z,60.14
2019-05-10T12:59:43.080Z,59.72
2019-05-10T13:02:13.183Z,57.61
2019-05-10T13:04:47.058Z,56.55
2019-05-10T13:07:14.819Z,56.04
2019-05-10T13:09:44.548Z,55.44
2019-05-10T13:12:14.606Z,56.06
2019-05-10T13:14:46.483Z,55.57
2019-05-10T13:17:17.143Z,53.83
2019-05-10T13:19:47.137Z,51.52
2019-05-10T13:22:16.841Z,51.36
2019-05-10T13:24:46.695Z,51.13
2019-05-10T13:27:16.521Z,51.48
2019-05-10T13:29:50.451Z,51.68
2019-05-10T13:32:20.543Z,50.97
2019-05-10T13:34:49.215Z,48.98
2019-05-10T13:37:23.543Z,49.38
2019-05-10T13:39:50.353Z,48.92
2019-05-10T13:42:20.056Z,48.29
2019-05-10T13:44:49.873Z,46.68
2019-05-10T13:47:19.585Z,47.37
2019-05-10T13:49:49.522Z,45.60
2019-05-10T13:52:19.242Z,45.67
2019-05-10T13:54:49.093Z,46.73
2019-05-10T13:57:18.829Z,47.98
2019-05-10T13:59:54.401Z,48.91
2019-05-10T14:02:22.843Z,50.28
2019-05-10T14:04:51.530Z,51.05
2019-05-10T14:07:21.181Z,51.99
2019-05-10T14:09:50.869Z,55.40
2019-05-10T14:12:23.109Z,60.77
2019-05-10T14:14:55.401Z,64.09
2019-05-10T14:17:23.498Z,66.57
2019-05-10T14:19:53.149Z,67.46
2019-05-10T14:22:22.900Z,68.23
2019-05-10T14:24:55.512Z,70.63
2019-05-10T14:27:24.431Z,70.32
2019-05-10T14:29:54.227Z,70.72
2019-05-10T14:32:24.120Z,70.68
2019-05-10T14:34:53.825Z,71.16
2019-05-10T14:37:23.510Z,70.65
2019-05-10T14:39:53.226Z,70.53
2019-05-10T14:42:30.831Z,70.40
2019-05-10T14:44:54.814Z,69.98
2019-05-10T14:47:24.496Z,70.56
2019-05-10T14:49:54.241Z,71.54
2019-05-10T14:52:24.080Z,68.11
2019-05-10T14:54:55.401Z,67.41
2019-05-10T14:57:25.359Z,67.59
2019-05-10T14:59:55.073Z,64.85
2019-05-10T15:02:25.179Z,60.48
2019-05-10T15:04:55.029Z,62.22
2019-05-10T15:07:24.768Z,61.24
2019-05-10T15:12:25.966Z,61.14
2019-05-10T15:14:55.660Z,61.52
2019-05-10T15:17:29.557Z,62.12
2019-05-10T15:19:59.750Z,62.42
2019-05-10T15:22:28.574Z,62.10
2019-05-10T15:24:58.285Z,63.30
2019-05-10T15:27:27.999Z,63.19
2019-05-10T15:29:58.795Z,63.84
2019-05-10T15:32:29.424Z,63.59
2019-05-10T15:35:08.294Z,62.32
2019-05-10T15:37:30.569Z,63.05
2019-05-10T15:40:05.449Z,63.16
2019-05-10T15:42:36.125Z,62.58
2019-05-10T15:45:05.161Z,64.74
2019-05-10T15:47:48.932Z,65.43
2019-05-10T15:50:07.664Z,66.06
2019-05-10T15:52:39.661Z,66.28
2019-05-10T15:55:09.811Z,66.78
2019-05-10T15:57:39.457Z,67.09
2019-05-10T16:00:10.258Z,66.90
2019-05-10T16:02:40.049Z,68.21
2019-05-10T16:05:25.623Z,68.68
2019-05-10T16:07:46.575Z,70.11
2019-05-10T16:10:14.443Z,71.42
2019-05-10T16:12:44.706Z,73.18
2019-05-10T16:15:20.137Z,71.05
2019-05-10T16:17:46.537Z,70.68
2019-05-10T16:20:16.535Z,72.07
2019-05-10T16:22:46.274Z,73.70
2019-05-10T16:25:16.147Z,72.96
2019-05-10T16:27:45.837Z,73.54
2019-05-10T16:30:18.025Z,74.28
2019-05-10T16:32:47.509Z,76.15
2019-05-10T16:35:17.241Z,77.85
2019-05-10T16:37:46.999Z,78.70
2019-05-10T16:40:16.902Z,78.51
2019-05-10T16:42:46.634Z,79.42
2019-05-10T16:45:16.698Z,78.86
2019-05-10T16:47:46.446Z,78.60
2019-05-10T16:50:16.544Z,78.30
2019-05-10T16:52:46.256Z,78.39
2019-05-10T16:55:16.123Z,78.35
2019-05-10T16:57:45.845Z,76.92
2019-05-10T17:00:16.166Z,77.13
2019-05-10T17:02:45.881Z,75.38
2019-05-10T17:05:17.455Z,75.00
2019-05-10T17:07:47.388Z,75.08
2019-05-10T17:10:17.395Z,74.56
2019-05-10T17:12:47.146Z,75.27
2019-05-10T17:15:17.239Z,75.47
2019-05-10T17:17:46.912Z,74.14
2019-05-10T17:20:17.415Z,75.04
2019-05-10T17:22:47.230Z,74.66
2019-05-10T17:25:17.293Z,74.30
2019-05-10T17:27:50.653Z,74.71
2019-05-10T17:30:22.048Z,74.67
2019-05-10T17:32:50.603Z,75.54
2019-05-10T17:35:20.598Z,76.08
2019-05-10T17:37:52.986Z,76.62
2019-05-10T17:40:23.486Z,74.44
2019-05-10T17:42:53.170Z,75.59
2019-05-10T17:45:25.008Z,76.83
2019-05-10T17:47:54.866Z,76.58
2019-05-10T17:50:24.581Z,76.70
2019-05-10T17:52:54.459Z,77.55
2019-05-10T17:55:25.593Z,77.20
2019-05-10T17:57:56.625Z,78.26
2019-05-10T18:00:26.611Z,78.02
2019-05-10T18:02:56.383Z,78.44
2019-05-10T18:05:26.127Z,76.75
2019-05-10T18:07:55.775Z,77.10
2019-05-10T18:10:25.652Z,77.62
2019-05-10T18:12:57.579Z,77.59
2019-05-10T18:15:27.655Z,76.68
2019-05-10T18:18:02.743Z,76.33
2019-05-10T18:20:36.026Z,76.63
2019-05-10T18:23:01.306Z,77.65
2019-05-10T18:25:31.052Z,78.20
2019-05-10T18:28:00.940Z,78.68
2019-05-10T18:30:30.616Z,78.99
2019-05-10T18:33:00.410Z,79.19
2019-05-10T18:35:30.172Z,79.27
2019-05-10T18:38:00.916Z,78.94
2019-05-10T18:40:32.155Z,79.91
2019-05-10T18:43:04.472Z,80.31
2019-05-10T18:45:34.748Z,80.54
2019-05-10T18:48:04.722Z,81.00
2019-05-10T18:50:39.609Z,81.31
2019-05-10T18:53:06.230Z,81.69
2019-05-10T18:55:36.262Z,81.85
2019-05-10T18:58:06.023Z,80.77
2019-05-10T19:00:36.065Z,80.95
2019-05-10T19:03:05.832Z,81.33
2019-05-10T19:05:35.540Z,81.92
2019-05-10T19:08:06.097Z,81.93
2019-05-10T19:10:36.373Z,81.46
2019-05-10T19:13:06.565Z,81.44
2019-05-10T19:15:36.508Z,82.05
2019-05-10T19:18:06.346Z,82.09
2019-05-10T19:20:36.182Z,81.86
2019-05-10T19:23:06.016Z,82.45
2019-05-10T19:25:37.829Z,82.77
2019-05-10T19:28:07.266Z,82.84
2019-05-10T19:30:37.326Z,82.60
2019-05-10T19:33:07.144Z,82.72
2019-05-10T19:35:37.952Z,82.74
2019-05-10T19:38:07.898Z,83.06
2019-05-10T19:40:37.743Z,83.24
2019-05-10T19:43:07.446Z,83.39
2019-05-10T19:45:37.245Z,82.58
2019-05-10T19:48:07.047Z,82.70
2019-05-10T19:50:36.789Z,82.62
2019-05-10T19:53:06.687Z,83.28
2019-05-10T19:55:36.478Z,83.85
2019-05-10T19:58:06.906Z,84.62
2019-05-10T20:00:36.636Z,84.72
2019-05-10T20:03:06.882Z,84.71
2019-05-10T20:05:36.807Z,84.81
2019-05-10T20:08:06.757Z,84.49
2019-05-10T20:10:36.854Z,84.14
2019-05-10T20:13:09.304Z,83.75
2019-05-10T20:15:43.439Z,83.52
2019-05-10T20:18:10.697Z,83.60
2019-05-10T20:20:40.519Z,83.41
2019-05-10T20:23:10.274Z,82.65
2019-05-10T20:25:40.001Z,83.43
2019-05-10T20:28:09.720Z,84.12
2019-05-10T20:30:39.469Z,84.30
2019-05-10T20:33:09.280Z,84.17
2019-05-10T20:35:39.061Z,84.52
2019-05-10T20:38:08.781Z,84.45
2019-05-10T20:40:38.518Z,84.74
2019-05-10T20:43:08.341Z,84.78
2019-05-10T20:45:38.206Z,84.68
2019-05-10T20:48:07.983Z,84.66
2019-05-10T20:50:37.709Z,84.58
2019-05-10T20:53:07.410Z,84.31
2019-05-10T20:55:37.121Z,83.81
2019-05-10T20:58:06.967Z,83.25
2019-05-10T21:00:36.873Z,83.51
2019-05-10T21:03:06.756Z,83.65
2019-05-10T21:05:36.573Z,83.97
2019-05-10T21:08:16.664Z,84.34
2019-05-10T21:10:37.728Z,84.46
2019-05-10T21:13:07.502Z,84.35
2019-05-10T21:15:37.281Z,83.70
2019-05-10T21:18:07.011Z,83.08
2019-05-10T21:20:36.745Z,83.05
2019-05-10T21:23:06.753Z,83.46
2019-05-10T21:25:36.719Z,83.59
2019-05-10T21:28:06.475Z,83.60
2019-05-10T21:30:36.239Z,83.63
2019-05-10T21:33:06.029Z,83.50
2019-05-10T21:35:35.810Z,82.83
2019-05-10T21:38:05.635Z,82.74
2019-05-10T21:40:35.854Z,83.59
2019-05-10T21:43:05.664Z,83.95
2019-05-10T21:45:35.775Z,84.35
2019-05-10T21:48:05.556Z,84.62
2019-05-10T21:50:35.230Z,84.60
2019-05-10T21:53:05.081Z,84.20
2019-05-10T21:55:34.823Z,83.88
2019-05-10T21:58:04.696Z,83.41
2019-05-10T22:00:38.752Z,83.37
2019-05-10T22:03:08.472Z,83.23
2019-05-10T22:05:38.227Z,82.67
2019-05-10T22:08:08.173Z,83.11
2019-05-10T22:10:38.039Z,83.28
2019-05-10T22:13:07.762Z,83.17
2019-05-10T22:15:37.577Z,83.07
2019-05-10T22:18:07.282Z,82.97
2019-05-10T22:20:37.053Z,82.52
2019-05-10T22:23:06.780Z,82.23
2019-05-10T22:25:36.542Z,82.76
2019-05-10T22:28:06.531Z,83.25
2019-05-10T22:30:36.376Z,83.68
2019-05-10T22:33:06.190Z,83.96
2019-05-10T22:35:35.925Z,84.15
2019-05-10T22:38:05.797Z,84.23
2019-05-10T22:40:35.707Z,84.04
2019-05-10T22:43:05.516Z,83.87
2019-05-10T22:45:36.181Z,83.65
2019-05-10T22:48:07.622Z,83.61
2019-05-10T22:50:37.415Z,83.32
2019-05-10T22:53:07.123Z,83.54
2019-05-10T22:55:37.069Z,83.63
2019-05-10T22:58:06.870Z,83.43
2019-05-10T23:00:36.725Z,82.50
2019-05-10T23:03:06.597Z,82.19
2019-05-10T23:05:36.282Z,82.88
2019-05-10T23:08:06.003Z,83.29
2019-05-10T23:10:35.656Z,83.28
2019-05-10T23:13:05.574Z,83.17
2019-05-10T23:15:36.825Z,83.49
2019-05-10T23:18:06.780Z,83.99
2019-05-10T23:20:36.535Z,84.02
2019-05-10T23:23:06.376Z,84.18
2019-05-10T23:25:36.125Z,84.56
2019-05-10T23:28:07.451Z,84.98
2019-05-10T23:30:37.152Z,85.01
2019-05-10T23:33:06.926Z,84.16
2019-05-10T23:35:37.758Z,83.52
2019-05-10T23:38:07.707Z,83.74
2019-05-10T23:40:37.493Z,83.81
2019-05-10T23:43:07.255Z,83.87
2019-05-10T23:45:37.111Z,84.28
2019-05-10T23:48:06.959Z,84.08
2019-05-10T23:50:36.802Z,83.21
2019-05-10T23:53:06.564Z,82.80
2019-05-10T23:55:36.249Z,82.80
2019-05-10T23:58:06.085Z,83.01
